sensor_id;sensor_type;location;lat;lon;timestamp;P1;durP1;ratioP1;P2;durP2;ratioP2
41837;SDS011;27511;52.042;5.178;2022-12-07T00:01:12;9.60;;;4.10;;
41837;SDS011;27511;52.042;5.178;2022-12-07T00:03:46;7.53;;;4.03;;
41837;SDS011;27511;52.042;5.178;2022-12-07T00:06:13;8.48;;;4.45;;
41837;SDS011;27511;52.042;5.178;2022-12-07T00:08:40;7.57;;;4.32;;
41837;SDS011;27511;52.042;5.178;2022-12-07T00:11:07;3.85;;;3.20;;
41837;SDS011;27511;52.042;5.178;2022-12-07T00:13:34;8.48;;;4.05;;
41837;SDS011;27511;52.042;5.178;2022-12-07T00:16:05;7.32;;;3.80;;
41837;SDS011;27511;52.042;5.178;2022-12-07T00:18:36;7.22;;;3.92;;
41837;SDS011;27511;52.042;5.178;2022-12-07T00:21:03;6.30;;;3.95;;
41837;SDS011;27511;52.042;5.178;2022-12-07T00:23:35;6.57;;;3.53;;
41837;SDS011;27511;52.042;5.178;2022-12-07T00:26:07;7.70;;;3.90;;
41837;SDS011;27511;52.042;5.178;2022-12-07T00:28:34;6.30;;;3.70;;
41837;SDS011;27511;52.042;5.178;2022-12-07T00:31:01;7.35;;;3.20;;
41837;SDS011;27511;52.042;5.178;2022-12-07T00:33:46;6.32;;;2.92;;
41837;SDS011;27511;52.042;5.178;2022-12-07T00:36:16;7.65;;;3.17;;
41837;SDS011;27511;52.042;5.178;2022-12-07T00:38:43;7.63;;;3.05;;
41837;SDS011;27511;52.042;5.178;2022-12-07T00:41:10;5.07;;;2.60;;
41837;SDS011;27511;52.042;5.178;2022-12-07T00:43:40;7.55;;;2.67;;
41837;SDS011;27511;52.042;5.178;2022-12-07T00:46:06;6.15;;;3.10;;
41837;SDS011;27511;52.042;5.178;2022-12-07T00:48:32;4.03;;;2.58;;
41837;SDS011;27511;52.042;5.178;2022-12-07T00:50:58;6.75;;;3.08;;
41837;SDS011;27511;52.042;5.178;2022-12-07T00:53:24;5.13;;;3.05;;
41837;SDS011;27511;52.042;5.178;2022-12-07T00:55:50;2.75;;;2.30;;
41837;SDS011;27511;52.042;5.178;2022-12-07T00:58:17;4.43;;;2.42;;
41837;SDS011;27511;52.042;5.178;2022-12-07T01:00:43;7.07;;;3.33;;
41837;SDS011;27511;52.042;5.178;2022-12-07T01:03:09;3.53;;;2.97;;
41837;SDS011;27511;52.042;5.178;2022-12-07T01:05:37;6.00;;;3.13;;
41837;SDS011;27511;52.042;5.178;2022-12-07T01:08:02;4.75;;;3.15;;
41837;SDS011;27511;52.042;5.178;2022-12-07T01:10:28;6.90;;;2.90;;
41837;SDS011;27511;52.042;5.178;2022-12-07T01:12:55;6.32;;;3.10;;
41837;SDS011;27511;52.042;5.178;2022-12-07T01:15:21;6.72;;;2.75;;
41837;SDS011;27511;52.042;5.178;2022-12-07T01:17:47;4.38;;;3.13;;
41837;SDS011;27511;52.042;5.178;2022-12-07T01:20:13;5.32;;;3.15;;
41837;SDS011;27511;52.042;5.178;2022-12-07T01:22:40;6.22;;;3.28;;
41837;SDS011;27511;52.042;5.178;2022-12-07T01:25:07;7.28;;;3.30;;
41837;SDS011;27511;52.042;5.178;2022-12-07T01:27:34;6.03;;;3.15;;
41837;SDS011;27511;52.042;5.178;2022-12-07T01:30:00;5.75;;;3.35;;
41837;SDS011;27511;52.042;5.178;2022-12-07T01:32:26;9.48;;;3.53;;
41837;SDS011;27511;52.042;5.178;2022-12-07T01:34:52;7.40;;;3.10;;
41837;SDS011;27511;52.042;5.178;2022-12-07T01:37:18;5.63;;;3.20;;
41837;SDS011;27511;52.042;5.178;2022-12-07T01:39:43;6.85;;;3.72;;
41837;SDS011;27511;52.042;5.178;2022-12-07T01:42:10;5.85;;;3.20;;
41837;SDS011;27511;52.042;5.178;2022-12-07T01:47:56;6.32;;;3.45;;
41837;SDS011;27511;52.042;5.178;2022-12-07T01:50:24;7.70;;;3.60;;
41837;SDS011;27511;52.042;5.178;2022-12-07T01:52:52;6.82;;;3.38;;
41837;SDS011;27511;52.042;5.178;2022-12-07T01:55:20;4.75;;;2.83;;
41837;SDS011;27511;52.042;5.178;2022-12-07T01:57:50;10.05;;;3.50;;
41837;SDS011;27511;52.042;5.178;2022-12-07T02:00:18;7.10;;;4.07;;
41837;SDS011;27511;52.042;5.178;2022-12-07T02:02:46;8.07;;;2.95;;
41837;SDS011;27511;52.042;5.178;2022-12-07T02:05:16;7.05;;;3.30;;
41837;SDS011;27511;52.042;5.178;2022-12-07T02:07:43;6.38;;;3.42;;
41837;SDS011;27511;52.042;5.178;2022-12-07T02:10:12;6.88;;;2.90;;
41837;SDS011;27511;52.042;5.178;2022-12-07T02:12:46;9.20;;;3.25;;
41837;SDS011;27511;52.042;5.178;2022-12-07T02:15:15;8.40;;;3.00;;
41837;SDS011;27511;52.042;5.178;2022-12-07T02:17:51;4.35;;;2.55;;
41837;SDS011;27511;52.042;5.178;2022-12-07T02:20:48;4.13;;;2.13;;
41837;SDS011;27511;52.042;5.178;2022-12-07T02:23:40;6.45;;;2.33;;
41837;SDS011;27511;52.042;5.178;2022-12-07T02:29:10;6.57;;;2.05;;
41837;SDS011;27511;52.042;5.178;2022-12-07T02:31:55;4.53;;;2.42;;
41837;SDS011;27511;52.042;5.178;2022-12-07T02:34:33;4.45;;;1.75;;
41837;SDS011;27511;52.042;5.178;2022-12-07T02:37:23;3.25;;;1.83;;
41837;SDS011;27511;52.042;5.178;2022-12-07T02:40:11;4.20;;;2.03;;
41837;SDS011;27511;52.042;5.178;2022-12-07T02:42:48;6.85;;;2.03;;
41837;SDS011;27511;52.042;5.178;2022-12-07T02:45:18;5.72;;;2.50;;
41837;SDS011;27511;52.042;5.178;2022-12-07T02:47:48;7.55;;;2.28;;
41837;SDS011;27511;52.042;5.178;2022-12-07T02:50:19;5.45;;;1.90;;
41837;SDS011;27511;52.042;5.178;2022-12-07T02:52:46;2.13;;;1.75;;
41837;SDS011;27511;52.042;5.178;2022-12-07T02:55:11;3.72;;;2.20;;
41837;SDS011;27511;52.042;5.178;2022-12-07T03:00:38;3.10;;;1.42;;
41837;SDS011;27511;52.042;5.178;2022-12-07T03:03:17;5.63;;;2.03;;
41837;SDS011;27511;52.042;5.178;2022-12-07T03:08:28;8.60;;;2.50;;
41837;SDS011;27511;52.042;5.178;2022-12-07T03:11:23;3.03;;;1.88;;
41837;SDS011;27511;52.042;5.178;2022-12-07T03:14:24;6.88;;;1.70;;
41837;SDS011;27511;52.042;5.178;2022-12-07T03:19:51;6.57;;;1.77;;
41837;SDS011;27511;52.042;5.178;2022-12-07T03:22:21;3.90;;;1.75;;
41837;SDS011;27511;52.042;5.178;2022-12-07T03:24:50;3.00;;;1.33;;
41837;SDS011;27511;52.042;5.178;2022-12-07T03:29:57;3.25;;;1.40;;
41837;SDS011;27511;52.042;5.178;2022-12-07T03:33:12;5.32;;;1.80;;
41837;SDS011;27511;52.042;5.178;2022-12-07T03:35:14;6.07;;;1.95;;
41837;SDS011;27511;52.042;5.178;2022-12-07T03:37:48;2.65;;;1.60;;
41837;SDS011;27511;52.042;5.178;2022-12-07T03:42:59;3.25;;;1.50;;
41837;SDS011;27511;52.042;5.178;2022-12-07T03:45:38;2.80;;;1.20;;
41837;SDS011;27511;52.042;5.178;2022-12-07T03:48:26;4.15;;;1.42;;
41837;SDS011;27511;52.042;5.178;2022-12-07T03:51:13;7.45;;;1.40;;
41837;SDS011;27511;52.042;5.178;2022-12-07T03:53:59;3.05;;;1.20;;
41837;SDS011;27511;52.042;5.178;2022-12-07T03:56:32;4.50;;;1.13;;
41837;SDS011;27511;52.042;5.178;2022-12-07T03:58:59;2.55;;;1.10;;
41837;SDS011;27511;52.042;5.178;2022-12-07T04:01:24;3.50;;;1.17;;
41837;SDS011;27511;52.042;5.178;2022-12-07T04:03:50;2.05;;;0.90;;
41837;SDS011;27511;52.042;5.178;2022-12-07T04:06:15;2.15;;;0.82;;
41837;SDS011;27511;52.042;5.178;2022-12-07T04:08:41;4.78;;;1.40;;
41837;SDS011;27511;52.042;5.178;2022-12-07T04:11:07;6.88;;;1.00;;
41837;SDS011;27511;52.042;5.178;2022-12-07T04:13:32;2.88;;;1.20;;
41837;SDS011;27511;52.042;5.178;2022-12-07T04:16:18;0.80;;;0.80;;
41837;SDS011;27511;52.042;5.178;2022-12-07T04:18:43;3.17;;;1.00;;
41837;SDS011;27511;52.042;5.178;2022-12-07T04:21:09;1.20;;;0.75;;
41837;SDS011;27511;52.042;5.178;2022-12-07T04:23:34;2.05;;;1.00;;
41837;SDS011;27511;52.042;5.178;2022-12-07T04:26:00;5.10;;;1.45;;
41837;SDS011;27511;52.042;5.178;2022-12-07T04:28:25;3.55;;;2.20;;
41837;SDS011;27511;52.042;5.178;2022-12-07T04:30:51;5.55;;;0.90;;
41837;SDS011;27511;52.042;5.178;2022-12-07T04:33:16;1.90;;;0.82;;
41837;SDS011;27511;52.042;5.178;2022-12-07T04:35:42;2.97;;;0.90;;
41837;SDS011;27511;52.042;5.178;2022-12-07T04:38:08;4.28;;;1.35;;
41837;SDS011;27511;52.042;5.178;2022-12-07T04:40:34;1.05;;;0.75;;
41837;SDS011;27511;52.042;5.178;2022-12-07T04:42:59;6.25;;;1.17;;
41837;SDS011;27511;52.042;5.178;2022-12-07T04:45:25;3.63;;;0.90;;
41837;SDS011;27511;52.042;5.178;2022-12-07T04:47:50;1.00;;;0.80;;
41837;SDS011;27511;52.042;5.178;2022-12-07T04:50:16;0.77;;;0.40;;
41837;SDS011;27511;52.042;5.178;2022-12-07T04:52:42;0.82;;;0.60;;
41837;SDS011;27511;52.042;5.178;2022-12-07T04:55:07;2.00;;;1.02;;
41837;SDS011;27511;52.042;5.178;2022-12-07T04:57:33;1.48;;;0.90;;
41837;SDS011;27511;52.042;5.178;2022-12-07T04:59:59;3.42;;;0.90;;
41837;SDS011;27511;52.042;5.178;2022-12-07T05:02:24;1.83;;;0.68;;
41837;SDS011;27511;52.042;5.178;2022-12-07T05:04:50;1.40;;;0.85;;
41837;SDS011;27511;52.042;5.178;2022-12-07T05:07:15;3.42;;;1.08;;
41837;SDS011;27511;52.042;5.178;2022-12-07T05:09:41;1.77;;;0.70;;
41837;SDS011;27511;52.042;5.178;2022-12-07T05:12:06;2.35;;;0.80;;
41837;SDS011;27511;52.042;5.178;2022-12-07T05:14:32;1.58;;;0.80;;
41837;SDS011;27511;52.042;5.178;2022-12-07T05:16:57;1.95;;;0.65;;
41837;SDS011;27511;52.042;5.178;2022-12-07T05:19:23;3.33;;;1.02;;
41837;SDS011;27511;52.042;5.178;2022-12-07T05:21:49;3.63;;;1.23;;
41837;SDS011;27511;52.042;5.178;2022-12-07T05:24:15;2.78;;;1.10;;
41837;SDS011;27511;52.042;5.178;2022-12-07T05:26:41;2.25;;;0.75;;
41837;SDS011;27511;52.042;5.178;2022-12-07T05:29:07;4.88;;;0.95;;
41837;SDS011;27511;52.042;5.178;2022-12-07T05:31:36;3.00;;;1.13;;
41837;SDS011;27511;52.042;5.178;2022-12-07T05:34:01;5.38;;;1.00;;
41837;SDS011;27511;52.042;5.178;2022-12-07T05:36:27;7.70;;;1.38;;
41837;SDS011;27511;52.042;5.178;2022-12-07T05:38:53;6.25;;;1.20;;
41837;SDS011;27511;52.042;5.178;2022-12-07T05:41:19;2.47;;;1.10;;
41837;SDS011;27511;52.042;5.178;2022-12-07T05:44:04;4.45;;;0.77;;
41837;SDS011;27511;52.042;5.178;2022-12-07T05:46:30;0.82;;;0.80;;
41837;SDS011;27511;52.042;5.178;2022-12-07T05:48:55;3.13;;;0.98;;
41837;SDS011;27511;52.042;5.178;2022-12-07T05:51:21;1.95;;;1.00;;
41837;SDS011;27511;52.042;5.178;2022-12-07T05:53:47;4.55;;;0.88;;
41837;SDS011;27511;52.042;5.178;2022-12-07T05:56:12;2.53;;;1.10;;
41837;SDS011;27511;52.042;5.178;2022-12-07T05:58:38;4.82;;;1.02;;
41837;SDS011;27511;52.042;5.178;2022-12-07T06:01:22;2.80;;;1.10;;
41837;SDS011;27511;52.042;5.178;2022-12-07T06:03:48;3.03;;;1.15;;
41837;SDS011;27511;52.042;5.178;2022-12-07T06:06:13;4.40;;;0.73;;
41837;SDS011;27511;52.042;5.178;2022-12-07T06:08:39;2.22;;;0.70;;
41837;SDS011;27511;52.042;5.178;2022-12-07T06:11:04;4.30;;;0.90;;
41837;SDS011;27511;52.042;5.178;2022-12-07T06:13:48;6.88;;;0.98;;
41837;SDS011;27511;52.042;5.178;2022-12-07T06:16:14;4.10;;;1.25;;
41837;SDS011;27511;52.042;5.178;2022-12-07T06:18:39;2.95;;;0.80;;
41837;SDS011;27511;52.042;5.178;2022-12-07T06:21:05;1.85;;;0.60;;
41837;SDS011;27511;52.042;5.178;2022-12-07T06:23:30;4.22;;;1.10;;
41837;SDS011;27511;52.042;5.178;2022-12-07T06:25:56;2.90;;;1.00;;
41837;SDS011;27511;52.042;5.178;2022-12-07T06:28:21;3.28;;;1.20;;
41837;SDS011;27511;52.042;5.178;2022-12-07T06:30:47;3.20;;;1.10;;
41837;SDS011;27511;52.042;5.178;2022-12-07T06:33:21;2.38;;;1.10;;
41837;SDS011;27511;52.042;5.178;2022-12-07T06:35:46;4.45;;;1.10;;
41837;SDS011;27511;52.042;5.178;2022-12-07T06:38:12;2.70;;;1.58;;
41837;SDS011;27511;52.042;5.178;2022-12-07T06:40:37;4.47;;;1.08;;
41837;SDS011;27511;52.042;5.178;2022-12-07T06:43:03;4.43;;;1.27;;
41837;SDS011;27511;52.042;5.178;2022-12-07T06:45:29;4.82;;;1.15;;
41837;SDS011;27511;52.042;5.178;2022-12-07T06:47:54;1.92;;;0.90;;
41837;SDS011;27511;52.042;5.178;2022-12-07T06:50:20;4.45;;;1.00;;
41837;SDS011;27511;52.042;5.178;2022-12-07T06:52:45;4.80;;;1.10;;
41837;SDS011;27511;52.042;5.178;2022-12-07T06:55:11;2.38;;;1.00;;
41837;SDS011;27511;52.042;5.178;2022-12-07T06:57:36;2.67;;;1.17;;
41837;SDS011;27511;52.042;5.178;2022-12-07T07:00:02;1.38;;;0.70;;
41837;SDS011;27511;52.042;5.178;2022-12-07T07:02:28;3.20;;;1.00;;
41837;SDS011;27511;52.042;5.178;2022-12-07T07:04:54;3.17;;;1.00;;
41837;SDS011;27511;52.042;5.178;2022-12-07T07:07:19;1.27;;;0.75;;
41837;SDS011;27511;52.042;5.178;2022-12-07T07:09:45;2.65;;;1.30;;
41837;SDS011;27511;52.042;5.178;2022-12-07T07:12:10;5.75;;;1.10;;
41837;SDS011;27511;52.042;5.178;2022-12-07T07:14:36;5.90;;;1.13;;
41837;SDS011;27511;52.042;5.178;2022-12-07T07:17:01;5.80;;;1.13;;
41837;SDS011;27511;52.042;5.178;2022-12-07T07:19:27;3.75;;;1.50;;
41837;SDS011;27511;52.042;5.178;2022-12-07T07:21:53;3.53;;;0.90;;
41837;SDS011;27511;52.042;5.178;2022-12-07T07:24:18;5.78;;;1.00;;
41837;SDS011;27511;52.042;5.178;2022-12-07T07:26:44;1.55;;;0.95;;
41837;SDS011;27511;52.042;5.178;2022-12-07T07:29:09;5.28;;;0.85;;
41837;SDS011;27511;52.042;5.178;2022-12-07T07:31:35;3.95;;;0.75;;
41837;SDS011;27511;52.042;5.178;2022-12-07T07:34:02;4.15;;;0.93;;
41837;SDS011;27511;52.042;5.178;2022-12-07T07:36:27;4.15;;;1.35;;
41837;SDS011;27511;52.042;5.178;2022-12-07T07:38:53;3.17;;;1.05;;
41837;SDS011;27511;52.042;5.178;2022-12-07T07:41:18;5.55;;;1.30;;
41837;SDS011;27511;52.042;5.178;2022-12-07T07:43:44;2.58;;;0.80;;
41837;SDS011;27511;52.042;5.178;2022-12-07T07:46:09;2.65;;;1.20;;
41837;SDS011;27511;52.042;5.178;2022-12-07T07:48:35;6.90;;;1.15;;
41837;SDS011;27511;52.042;5.178;2022-12-07T07:51:04;7.22;;;1.48;;
41837;SDS011;27511;52.042;5.178;2022-12-07T07:53:31;3.25;;;1.75;;
41837;SDS011;27511;52.042;5.178;2022-12-07T07:55:56;1.45;;;0.90;;
41837;SDS011;27511;52.042;5.178;2022-12-07T07:58:22;5.35;;;1.33;;
41837;SDS011;27511;52.042;5.178;2022-12-07T08:00:47;3.25;;;0.98;;
41837;SDS011;27511;52.042;5.178;2022-12-07T08:03:13;6.18;;;0.95;;
41837;SDS011;27511;52.042;5.178;2022-12-07T08:05:38;5.28;;;1.17;;
41837;SDS011;27511;52.042;5.178;2022-12-07T08:08:04;2.30;;;1.08;;
41837;SDS011;27511;52.042;5.178;2022-12-07T08:10:29;6.43;;;1.40;;
41837;SDS011;27511;52.042;5.178;2022-12-07T08:12:57;5.50;;;1.73;;
41837;SDS011;27511;52.042;5.178;2022-12-07T08:15:45;1.95;;;1.10;;
41837;SDS011;27511;52.042;5.178;2022-12-07T08:18:12;2.45;;;1.00;;
41837;SDS011;27511;52.042;5.178;2022-12-07T08:20:39;4.57;;;1.15;;
41837;SDS011;27511;52.042;5.178;2022-12-07T08:23:06;2.15;;;1.23;;
41837;SDS011;27511;52.042;5.178;2022-12-07T08:25:32;2.35;;;0.73;;
41837;SDS011;27511;52.042;5.178;2022-12-07T08:27:58;3.92;;;1.17;;
41837;SDS011;27511;52.042;5.178;2022-12-07T08:30:27;3.75;;;1.05;;
41837;SDS011;27511;52.042;5.178;2022-12-07T08:32:53;6.20;;;1.10;;
41837;SDS011;27511;52.042;5.178;2022-12-07T08:35:18;4.10;;;1.20;;
41837;SDS011;27511;52.042;5.178;2022-12-07T08:37:44;2.58;;;1.08;;
41837;SDS011;27511;52.042;5.178;2022-12-07T08:40:10;2.70;;;0.88;;
41837;SDS011;27511;52.042;5.178;2022-12-07T08:42:40;2.70;;;1.00;;
41837;SDS011;27511;52.042;5.178;2022-12-07T08:45:11;6.40;;;1.70;;
41837;SDS011;27511;52.042;5.178;2022-12-07T08:47:43;4.13;;;1.02;;
41837;SDS011;27511;52.042;5.178;2022-12-07T08:50:22;7.13;;;1.23;;
41837;SDS011;27511;52.042;5.178;2022-12-07T08:52:51;5.20;;;1.10;;
41837;SDS011;27511;52.042;5.178;2022-12-07T08:55:20;2.30;;;0.98;;
41837;SDS011;27511;52.042;5.178;2022-12-07T08:57:45;4.97;;;1.08;;
41837;SDS011;27511;52.042;5.178;2022-12-07T09:00:11;3.17;;;1.20;;
41837;SDS011;27511;52.042;5.178;2022-12-07T09:02:37;6.88;;;1.20;;
41837;SDS011;27511;52.042;5.178;2022-12-07T09:05:03;2.63;;;1.00;;
41837;SDS011;27511;52.042;5.178;2022-12-07T09:07:29;3.05;;;1.25;;
41837;SDS011;27511;52.042;5.178;2022-12-07T09:09:57;5.22;;;1.50;;
41837;SDS011;27511;52.042;5.178;2022-12-07T09:12:22;3.50;;;1.60;;
41837;SDS011;27511;52.042;5.178;2022-12-07T09:14:48;2.92;;;1.20;;
41837;SDS011;27511;52.042;5.178;2022-12-07T09:17:19;6.03;;;1.25;;
41837;SDS011;27511;52.042;5.178;2022-12-07T09:19:45;3.58;;;1.33;;
41837;SDS011;27511;52.042;5.178;2022-12-07T09:22:11;2.85;;;1.23;;
41837;SDS011;27511;52.042;5.178;2022-12-07T09:24:36;6.50;;;1.50;;
41837;SDS011;27511;52.042;5.178;2022-12-07T09:27:02;3.45;;;1.33;;
41837;SDS011;27511;52.042;5.178;2022-12-07T09:29:27;2.00;;;1.40;;
41837;SDS011;27511;52.042;5.178;2022-12-07T09:31:53;3.60;;;1.10;;
41837;SDS011;27511;52.042;5.178;2022-12-07T09:34:19;4.97;;;1.42;;
41837;SDS011;27511;52.042;5.178;2022-12-07T09:36:45;3.03;;;1.10;;
41837;SDS011;27511;52.042;5.178;2022-12-07T09:39:10;4.88;;;1.58;;
41837;SDS011;27511;52.042;5.178;2022-12-07T09:41:40;5.95;;;2.03;;
41837;SDS011;27511;52.042;5.178;2022-12-07T09:44:12;6.47;;;1.35;;
41837;SDS011;27511;52.042;5.178;2022-12-07T09:46:43;3.83;;;1.00;;
41837;SDS011;27511;52.042;5.178;2022-12-07T09:49:31;2.22;;;1.33;;
41837;SDS011;27511;52.042;5.178;2022-12-07T09:52:16;4.13;;;1.17;;
41837;SDS011;27511;52.042;5.178;2022-12-07T09:54:46;3.08;;;1.02;;
41837;SDS011;27511;52.042;5.178;2022-12-07T09:57:13;1.35;;;0.98;;
41837;SDS011;27511;52.042;5.178;2022-12-07T09:59:39;9.45;;;1.50;;
41837;SDS011;27511;52.042;5.178;2022-12-07T10:02:19;5.95;;;1.77;;
41837;SDS011;27511;52.042;5.178;2022-12-07T10:05:03;5.82;;;1.60;;
41837;SDS011;27511;52.042;5.178;2022-12-07T10:07:30;6.03;;;1.50;;
41837;SDS011;27511;52.042;5.178;2022-12-07T10:09:55;6.47;;;1.65;;
41837;SDS011;27511;52.042;5.178;2022-12-07T10:12:21;4.07;;;1.25;;
41837;SDS011;27511;52.042;5.178;2022-12-07T10:14:59;5.05;;;1.45;;
41837;SDS011;27511;52.042;5.178;2022-12-07T10:17:40;5.28;;;1.40;;
41837;SDS011;27511;52.042;5.178;2022-12-07T10:22:56;6.85;;;1.40;;
41837;SDS011;27511;52.042;5.178;2022-12-07T10:25:28;5.28;;;1.10;;
41837;SDS011;27511;52.042;5.178;2022-12-07T10:28:17;5.10;;;1.52;;
41837;SDS011;27511;52.042;5.178;2022-12-07T10:30:47;3.15;;;1.40;;
41837;SDS011;27511;52.042;5.178;2022-12-07T10:33:55;4.28;;;1.70;;
41837;SDS011;27511;52.042;5.178;2022-12-07T10:36:34;3.50;;;1.10;;
41837;SDS011;27511;52.042;5.178;2022-12-07T10:39:14;8.35;;;1.48;;
41837;SDS011;27511;52.042;5.178;2022-12-07T10:41:56;2.35;;;1.10;;
41837;SDS011;27511;52.042;5.178;2022-12-07T10:44:27;4.53;;;0.93;;
41837;SDS011;27511;52.042;5.178;2022-12-07T10:52:13;4.53;;;1.20;;
41837;SDS011;27511;52.042;5.178;2022-12-07T11:00:31;4.90;;;1.38;;
41837;SDS011;27511;52.042;5.178;2022-12-07T11:03:19;9.07;;;1.23;;
41837;SDS011;27511;52.042;5.178;2022-12-07T11:06:15;3.17;;;0.70;;
41837;SDS011;27511;52.042;5.178;2022-12-07T11:17:52;1.55;;;0.80;;
41837;SDS011;27511;52.042;5.178;2022-12-07T11:32:37;4.95;;;0.75;;
41837;SDS011;27511;52.042;5.178;2022-12-07T11:37:32;3.22;;;0.70;;
41837;SDS011;27511;52.042;5.178;2022-12-07T11:40:04;2.55;;;0.90;;
41837;SDS011;27511;52.042;5.178;2022-12-07T11:43:18;3.38;;;0.88;;
41837;SDS011;27511;52.042;5.178;2022-12-07T11:45:55;5.10;;;0.82;;
41837;SDS011;27511;52.042;5.178;2022-12-07T11:51:15;2.28;;;0.70;;
41837;SDS011;27511;52.042;5.178;2022-12-07T11:53:53;3.42;;;0.80;;
41837;SDS011;27511;52.042;5.178;2022-12-07T11:56:23;1.73;;;0.77;;
41837;SDS011;27511;52.042;5.178;2022-12-07T11:58:57;4.10;;;0.90;;
41837;SDS011;27511;52.042;5.178;2022-12-07T12:01:41;1.33;;;1.02;;
41837;SDS011;27511;52.042;5.178;2022-12-07T12:07:00;3.28;;;1.15;;
41837;SDS011;27511;52.042;5.178;2022-12-07T12:09:30;0.73;;;0.50;;
41837;SDS011;27511;52.042;5.178;2022-12-07T12:25:40;5.65;;;1.15;;
41837;SDS011;27511;52.042;5.178;2022-12-07T12:28:25;4.05;;;1.10;;
41837;SDS011;27511;52.042;5.178;2022-12-07T12:31:07;1.98;;;0.70;;
41837;SDS011;27511;52.042;5.178;2022-12-07T12:33:34;4.43;;;0.95;;
41837;SDS011;27511;52.042;5.178;2022-12-07T12:38:48;3.25;;;0.80;;
41837;SDS011;27511;52.042;5.178;2022-12-07T12:46:46;3.28;;;1.00;;
41837;SDS011;27511;52.042;5.178;2022-12-07T12:51:49;4.28;;;1.98;;
41837;SDS011;27511;52.042;5.178;2022-12-07T12:54:24;2.55;;;0.82;;
41837;SDS011;27511;52.042;5.178;2022-12-07T13:02:30;2.10;;;0.77;;
41837;SDS011;27511;52.042;5.178;2022-12-07T13:10:24;1.73;;;0.80;;
41837;SDS011;27511;52.042;5.178;2022-12-07T13:18:48;0.98;;;0.65;;
41837;SDS011;27511;52.042;5.178;2022-12-07T13:20:50;1.42;;;0.73;;
41837;SDS011;27511;52.042;5.178;2022-12-07T13:23:18;3.45;;;1.60;;
41837;SDS011;27511;52.042;5.178;2022-12-07T13:28:37;4.70;;;0.68;;
41837;SDS011;27511;52.042;5.178;2022-12-07T13:33:37;3.30;;;1.00;;
41837;SDS011;27511;52.042;5.178;2022-12-07T13:36:03;2.20;;;1.05;;
41837;SDS011;27511;52.042;5.178;2022-12-07T13:38:33;5.47;;;1.17;;
41837;SDS011;27511;52.042;5.178;2022-12-07T13:41:12;3.47;;;0.90;;
41837;SDS011;27511;52.042;5.178;2022-12-07T13:44:22;5.82;;;0.85;;
41837;SDS011;27511;52.042;5.178;2022-12-07T13:51:52;1.45;;;0.43;;
41837;SDS011;27511;52.042;5.178;2022-12-07T13:54:19;5.68;;;1.05;;
41837;SDS011;27511;52.042;5.178;2022-12-07T13:56:47;1.23;;;0.50;;
41837;SDS011;27511;52.042;5.178;2022-12-07T13:59:26;0.95;;;0.55;;
41837;SDS011;27511;52.042;5.178;2022-12-07T14:01:52;1.85;;;0.57;;
41837;SDS011;27511;52.042;5.178;2022-12-07T14:06:58;6.35;;;0.50;;
41837;SDS011;27511;52.042;5.178;2022-12-07T14:09:27;2.13;;;0.40;;
41837;SDS011;27511;52.042;5.178;2022-12-07T14:11:54;3.72;;;0.40;;
41837;SDS011;27511;52.042;5.178;2022-12-07T14:14:29;1.50;;;0.38;;
41837;SDS011;27511;52.042;5.178;2022-12-07T14:16:57;1.17;;;0.30;;
41837;SDS011;27511;52.042;5.178;2022-12-07T14:25:21;1.60;;;0.40;;
41837;SDS011;27511;52.042;5.178;2022-12-07T14:28:01;0.80;;;0.57;;
41837;SDS011;27511;52.042;5.178;2022-12-07T14:30:29;2.40;;;0.30;;
41837;SDS011;27511;52.042;5.178;2022-12-07T14:32:58;0.45;;;0.30;;
41837;SDS011;27511;52.042;5.178;2022-12-07T14:35:25;1.05;;;0.43;;
41837;SDS011;27511;52.042;5.178;2022-12-07T14:37:51;0.80;;;0.40;;
41837;SDS011;27511;52.042;5.178;2022-12-07T14:40:19;1.40;;;0.50;;
41837;SDS011;27511;52.042;5.178;2022-12-07T14:43:02;1.63;;;0.43;;
41837;SDS011;27511;52.042;5.178;2022-12-07T14:45:39;0.60;;;0.30;;
41837;SDS011;27511;52.042;5.178;2022-12-07T14:48:05;1.98;;;0.30;;
41837;SDS011;27511;52.042;5.178;2022-12-07T14:50:35;1.08;;;0.40;;
41837;SDS011;27511;52.042;5.178;2022-12-07T14:53:05;1.90;;;1.02;;
41837;SDS011;27511;52.042;5.178;2022-12-07T14:55:38;1.30;;;0.60;;
41837;SDS011;27511;52.042;5.178;2022-12-07T14:58:14;1.08;;;0.47;;
41837;SDS011;27511;52.042;5.178;2022-12-07T15:00:46;2.58;;;0.55;;
41837;SDS011;27511;52.042;5.178;2022-12-07T15:03:13;1.05;;;0.73;;
41837;SDS011;27511;52.042;5.178;2022-12-07T15:05:39;1.33;;;0.60;;
41837;SDS011;27511;52.042;5.178;2022-12-07T15:08:05;3.72;;;0.85;;
41837;SDS011;27511;52.042;5.178;2022-12-07T15:10:32;2.42;;;0.65;;
41837;SDS011;27511;52.042;5.178;2022-12-07T15:12:59;1.15;;;0.73;;
41837;SDS011;27511;52.042;5.178;2022-12-07T15:15:44;0.73;;;0.60;;
41837;SDS011;27511;52.042;5.178;2022-12-07T15:18:10;2.08;;;0.57;;
41837;SDS011;27511;52.042;5.178;2022-12-07T15:20:36;1.33;;;0.90;;
41837;SDS011;27511;52.042;5.178;2022-12-07T15:23:02;2.67;;;0.80;;
41837;SDS011;27511;52.042;5.178;2022-12-07T15:25:27;3.30;;;0.80;;
41837;SDS011;27511;52.042;5.178;2022-12-07T15:27:53;2.63;;;0.88;;
41837;SDS011;27511;52.042;5.178;2022-12-07T15:30:19;2.20;;;0.93;;
41837;SDS011;27511;52.042;5.178;2022-12-07T15:32:48;1.98;;;0.90;;
41837;SDS011;27511;52.042;5.178;2022-12-07T15:35:14;2.53;;;1.10;;
41837;SDS011;27511;52.042;5.178;2022-12-07T15:37:40;3.30;;;1.35;;
41837;SDS011;27511;52.042;5.178;2022-12-07T15:40:05;3.78;;;1.50;;
41837;SDS011;27511;52.042;5.178;2022-12-07T15:42:32;3.55;;;1.70;;
41837;SDS011;27511;52.042;5.178;2022-12-07T15:44:57;1.88;;;1.25;;
41837;SDS011;27511;52.042;5.178;2022-12-07T15:47:29;1.38;;;0.90;;
41837;SDS011;27511;52.042;5.178;2022-12-07T15:49:55;1.77;;;1.13;;
41837;SDS011;27511;52.042;5.178;2022-12-07T15:52:21;2.10;;;1.13;;
41837;SDS011;27511;52.042;5.178;2022-12-07T15:54:46;2.20;;;1.00;;
41837;SDS011;27511;52.042;5.178;2022-12-07T15:57:12;3.70;;;0.98;;
41837;SDS011;27511;52.042;5.178;2022-12-07T15:59:38;2.38;;;1.00;;
41837;SDS011;27511;52.042;5.178;2022-12-07T16:02:04;3.50;;;0.85;;
41837;SDS011;27511;52.042;5.178;2022-12-07T16:04:29;4.35;;;1.20;;
41837;SDS011;27511;52.042;5.178;2022-12-07T16:06:55;5.05;;;1.17;;
41837;SDS011;27511;52.042;5.178;2022-12-07T16:09:21;1.50;;;0.88;;
41837;SDS011;27511;52.042;5.178;2022-12-07T16:11:47;3.45;;;0.88;;
41837;SDS011;27511;52.042;5.178;2022-12-07T16:14:12;2.05;;;1.08;;
41837;SDS011;27511;52.042;5.178;2022-12-07T16:16:38;1.52;;;0.75;;
41837;SDS011;27511;52.042;5.178;2022-12-07T16:19:05;6.38;;;1.63;;
41837;SDS011;27511;52.042;5.178;2022-12-07T16:21:30;3.25;;;0.98;;
41837;SDS011;27511;52.042;5.178;2022-12-07T16:23:59;5.22;;;1.20;;
41837;SDS011;27511;52.042;5.178;2022-12-07T16:26:25;2.65;;;0.93;;
41837;SDS011;27511;52.042;5.178;2022-12-07T16:28:51;5.22;;;2.00;;
41837;SDS011;27511;52.042;5.178;2022-12-07T16:31:18;3.70;;;1.35;;
41837;SDS011;27511;52.042;5.178;2022-12-07T16:33:46;2.45;;;1.10;;
41837;SDS011;27511;52.042;5.178;2022-12-07T16:36:12;5.38;;;1.10;;
41837;SDS011;27511;52.042;5.178;2022-12-07T16:38:40;3.72;;;1.42;;
41837;SDS011;27511;52.042;5.178;2022-12-07T16:41:07;2.85;;;1.40;;
41837;SDS011;27511;52.042;5.178;2022-12-07T16:43:36;4.82;;;1.50;;
41837;SDS011;27511;52.042;5.178;2022-12-07T16:46:05;2.10;;;1.55;;
41837;SDS011;27511;52.042;5.178;2022-12-07T16:48:37;4.80;;;1.70;;
41837;SDS011;27511;52.042;5.178;2022-12-07T16:51:04;4.88;;;1.50;;
41837;SDS011;27511;52.042;5.178;2022-12-07T16:53:32;6.18;;;1.95;;
41837;SDS011;27511;52.042;5.178;2022-12-07T16:55:57;3.78;;;1.70;;
41837;SDS011;27511;52.042;5.178;2022-12-07T16:58:23;4.30;;;1.80;;
41837;SDS011;27511;52.042;5.178;2022-12-07T17:00:48;3.75;;;1.77;;
41837;SDS011;27511;52.042;5.178;2022-12-07T17:03:17;3.05;;;1.50;;
41837;SDS011;27511;52.042;5.178;2022-12-07T17:05:48;3.35;;;1.52;;